Airfield :
LOGIN :

Register | Disclaimer

   EN    FR    IT 

 










Legend :    VFR   Marginal VFR   IFR   Intensive IFR   Very Intensive IFR
Visi :
Ceiling :
>= 8 km
>= 3000ft
5 to 8 km
1000 to 3000 ft
1500m to 5 km
500 to 1000 ft
800 to 1500m
200 to 500 ft
< 800m
< 200 ft
Symbols :   Thunderstorms  Fog  Heavy snow  Heavy precipitations  Wind > 20 kt
SIGMETs :     Misc.  Thunderstorms  Icing  Turbulence  Mountain Waves  Volcanic Ashes






- Airport Elevation : 82 ft
- IATA code : QIE


LFMI - Istres

CURRENT METAR :
  • 271300Z AUTO 10010KT 9999 FEW018 BKN027 OVC037 08/06 Q1011 BECMG 23017KT

EXPIRED METARs :
  • 271230Z AUTO 11010KT 9999 BKN009 BKN013 BKN021 07/06 Q1012 TEMPO BKN026 BECMG 23017KT
  • 271200Z AUTO 11011KT 9999 -DZ OVC011 07/05 Q1013 BECMG 23017KT BKN040
  • 271130Z AUTO 11010KT 9999 BKN016 BKN024 BKN036 07/05 Q1013
  • 271100Z AUTO 11009KT 050V130 8000 -RA BKN017 BKN023 BKN029 06/04 Q1014 BECMG 23017KT
  • 271030Z AUTO 10007KT 8000 -RA BKN020 BKN025 BKN032 06/03 Q1015 BECMG 23017KT

TAF AMD TAF LFMI
Valid from the 27 at 12:00 until the 28 at 09:00 UTC


271204Z 2712/2809 12010KT 5000 -RA BR OVC012
BECMG 2712/2713 23017KT 9999 NSW BKN040
TEMPO 2714/2716 BKN026
BECMG 2716/2718 28013KT CAVOK
BECMG 2720/2722 32010KT
BECMG 2723/2801 36020KT
TEMPO 2802/2805 35021G31KT



MET'MAP, your aeronautical weather chart ! - Copyright ORBIFLY December 2007 - Disclaimer

ORBIFLY MET'MAP TEAM :

Programming & Development : Alexandra Zaïnal
Concept & original design : Baudouin d'Aumeries
Assistance for programming : Marc-Olivier Méhu
Technical & hardware support : Manuel Goepfert

Contact : metmap@orbifly.com




SOURCES & CREDITS :

   NOAA